No particular awareness of the weather is required.    There are no Weather-warnings


Meteo18 Weather Cam more information Meteo18 Weather Cam


Thunder radar more information blitzortung!


Rain radar more information rain snow radar


Visit our other weather sites:

Template documentation
and downloads

And another site



Weather Underground History page Text

Daily Summary for January 5, 2018 Units:  English    Metric   Both
« Previous Day
Next Day »
Daily Weekly Monthly Yearly Custom
  High: Low: Average:
Temperature: TemperatureC °F 8.1 °F 9.2 °F
Dew Point: DewpointC °F 7.4 °F 8.2 °F
Humidity: Humidity % 90 % 93 %
Wind Speed: WindSpeedKMH mph 0.0 mph 8.4 mph
Wind Gust: WindSpeedGustKMH mph - -
Wind:- - SW
Pressure: PressurehPa in 1002.3 in -
Precipitation: 6.1 in    
Historical Graphs
 
 
Tabular Data for January 5, 2018
Time Temperature Dew Point Pressure Wind Wind Speed Wind Gust Humidity Rainfall Rate (Hourly)
TemperatureC °F DewpointC °F PressurehPa in Calm     Humidity % HourlyPrecipMM in
00:03 9.2 °F 7.8 °F 1008.4 in WSW 4.7 mph 11.3 mph 91 % 0.0 in
00:09 9.1 °F 7.7 °F 1008.0 in WSW 14.3 mph 19.3 mph 91 % 0.0 in
00:15 9.1 °F 7.7 °F 1008.0 in West 11.1 mph 16.1 mph 91 % 0.0 in
00:21 9.1 °F 7.7 °F 1008.4 in WSW 6.4 mph 11.3 mph 91 % 0.0 in
00:23 9.1 °F 7.7 °F 1008.4 in WSW 6.4 mph 9.7 mph 91 % 0.0 in
00:25 9.1 °F 7.7 °F 1008.4 in WSW 7.9 mph 14.5 mph 91 % 0.0 in
00:31 9.1 °F 7.9 °F 1008.0 in SW 11.1 mph 12.9 mph 92 % 0.0 in
00:37 9.0 °F 7.8 °F 1007.7 in SW 11.1 mph 14.5 mph 92 % 0.0 in
00:43 9.0 °F 7.8 °F 1008.0 in SW 9.7 mph 11.3 mph 92 % 0.0 in
00:49 8.9 °F 7.8 °F 1008.0 in SSW 11.1 mph 16.1 mph 93 % 0.0 in
00:55 8.9 °F 7.8 °F 1007.7 in SW 6.4 mph 12.9 mph 93 % 0.0 in
01:04 9.0 °F 7.9 °F 1007.7 in WSW 6.4 mph 12.9 mph 93 % 0.0 in
01:09 8.9 °F 7.8 °F 1007.7 in SW 20.9 mph 20.9 mph 93 % 0.0 in
01:17 9.0 °F 7.9 °F 1007.7 in WSW 17.7 mph 17.7 mph 93 % 0.0 in
01:24 9.0 °F 7.9 °F 1007.3 in SSW 11.1 mph 12.9 mph 93 % 0.0 in
01:32 8.9 °F 7.8 °F 1007.3 in SW 9.7 mph 14.5 mph 93 % 0.0 in
01:38 8.8 °F 7.7 °F 1007.0 in SSW 11.1 mph 17.7 mph 93 % 0.0 in
01:44 8.7 °F 7.8 °F 1007.0 in SSW 11.1 mph 12.9 mph 94 % 0.0 in
01:52 8.6 °F 7.7 °F 1007.0 in SSW 7.9 mph 17.7 mph 94 % 0.0 in
01:58 8.5 °F 7.6 °F 1007.0 in SSW 9.7 mph 16.1 mph 94 % 0.0 in
02:00 8.5 °F 7.6 °F 1007.0 in SSW 11.1 mph 19.3 mph 94 % 0.0 in
02:06 8.4 °F 7.6 °F 1007.0 in SSW 11.1 mph 17.7 mph 95 % 0.0 in
02:10 8.4 °F 7.6 °F 1006.7 in SSW 16.3 mph 16.3 mph 95 % 0.0 in
02:22 8.6 °F 7.8 °F 1006.3 in SW 11.1 mph 17.7 mph 95 % 0.0 in
02:28 8.7 °F 7.9 °F 1006.3 in SSW 9.7 mph 20.9 mph 95 % 0.0 in
02:34 8.8 °F 8.0 °F 1006.3 in SSW 11.1 mph 19.3 mph 95 % 0.0 in
02:40 8.9 °F 8.1 °F 1006.3 in SSW 9.7 mph 20.9 mph 95 % 0.0 in
02:46 9.0 °F 8.2 °F 1006.3 in SW 13.0 mph 19.3 mph 95 % 0.0 in
02:52 9.1 °F 8.3 °F 1006.3 in SW 13.0 mph 20.9 mph 95 % 0.0 in
03:00 9.3 °F 8.4 °F 1006.0 in South 14.3 mph 19.3 mph 94 % 0.0 in
03:10 9.3 °F 8.4 °F 1006.0 in SW 11.1 mph 20.9 mph 94 % 0.0 in
03:16 9.4 °F 8.5 °F 1006.0 in South 13.0 mph 19.3 mph 94 % 0.0 in
03:24 9.5 °F 8.6 °F 1005.6 in SSW 9.7 mph 16.1 mph 94 % 0.0 in
03:26 9.5 °F 8.6 °F 1005.6 in SW 14.3 mph 20.9 mph 94 % 0.0 in
03:30 9.6 °F 8.7 °F 1005.6 in SSW 7.9 mph 19.3 mph 94 % 0.0 in
03:36 9.6 °F 8.7 °F 1005.6 in WSW 14.3 mph 14.5 mph 94 % 0.0 in
03:40 9.5 °F 8.6 °F 1005.6 in SSW 13.0 mph 14.5 mph 94 % 0.0 in
03:46 9.4 °F 8.5 °F 1005.6 in SSW 3.2 mph 11.3 mph 94 % 0.0 in
03:54 9.3 °F 8.4 °F 1005.6 in SSE 3.2 mph 9.7 mph 94 % 0.0 in
03:56 9.3 °F 8.5 °F 1005.6 in SSE 3.2 mph 9.7 mph 95 % 0.0 in
04:00 9.3 °F 8.5 °F 1005.6 in SSW 3.2 mph 9.7 mph 95 % 0.0 in
04:02 9.3 °F 8.5 °F 1005.6 in SSW 6.4 mph 9.7 mph 95 % 0.0 in
04:08 9.3 °F 8.5 °F 1005.3 in SE 6.4 mph 9.7 mph 95 % 0.0 in
04:14 9.2 °F 8.4 °F 1005.3 in South 6.4 mph 9.7 mph 95 % 0.0 in
04:22 9.2 °F 8.4 °F 1005.0 in SSE 6.4 mph 11.3 mph 95 % 0.0 in
04:34 9.2 °F 8.4 °F 1004.6 in South 4.7 mph 11.3 mph 95 % 0.0 in
04:38 9.2 °F 8.4 °F 1004.6 in SSW 3.2 mph 12.9 mph 95 % 0.0 in
04:40 9.2 °F 8.4 °F 1004.6 in SSE 4.7 mph 8.0 mph 95 % 0.0 in
04:46 9.1 °F 8.3 °F 1004.6 in SSW 6.4 mph 8.0 mph 95 % 0.0 in
04:54 9.2 °F 8.4 °F 1004.6 in ESE 6.4 mph 9.7 mph 95 % 0.0 in
05:02 9.2 °F 8.4 °F 1004.3 in South 3.2 mph 9.7 mph 95 % 0.0 in
05:10 9.2 °F 8.4 °F 1004.3 in SSW 4.7 mph 8.0 mph 95 % 0.0 in
05:16 9.2 °F 8.4 °F 1003.9 in South 4.7 mph 8.0 mph 95 % 0.0 in
05:24 9.3 °F 8.5 °F 1003.9 in SW 3.2 mph 9.7 mph 95 % 0.0 in
05:31 9.3 °F 8.5 °F 1003.9 in SSW 4.7 mph 11.3 mph 95 % 0.0 in
05:36 9.4 °F 8.6 °F 1003.9 in SSW 3.2 mph 8.0 mph 95 % 0.0 in
05:43 9.4 °F 8.6 °F 1003.9 in SSE 7.9 mph 8.0 mph 95 % 0.0 in
05:50 9.4 °F 8.6 °F 1003.9 in South 4.7 mph 11.3 mph 95 % 0.0 in
06:00 9.6 °F 8.8 °F 1003.9 in South 11.1 mph 12.9 mph 95 % 0.0 in
06:06 9.6 °F 8.7 °F 1003.6 in South 7.9 mph 12.9 mph 94 % 0.0 in
06:12 9.6 °F 8.7 °F 1003.3 in SSW 6.4 mph 12.9 mph 94 % 0.0 in
06:18 9.6 °F 8.7 °F 1003.3 in SSW 3.2 mph 8.0 mph 94 % 0.0 in
06:24 9.6 °F 8.7 °F 1003.3 in SSE 9.7 mph 16.1 mph 94 % 0.0 in
06:30 9.6 °F 8.7 °F 1003.3 in SSW 7.9 mph 11.3 mph 94 % 0.0 in
06:36 9.5 °F 8.7 °F 1003.3 in South 7.9 mph 11.3 mph 95 % 0.0 in
06:44 9.6 °F 8.8 °F 1003.3 in SW 9.7 mph 16.1 mph 95 % 0.0 in
06:52 9.7 °F 8.9 °F 1002.9 in SSW 7.9 mph 16.1 mph 95 % 0.0 in
06:56 9.7 °F 9.1 °F 1002.9 in SSW 7.9 mph 14.5 mph 96 % 0.0 in
06:58 9.8 °F 9.2 °F 1002.9 in SSW 7.9 mph 16.1 mph 96 % 0.0 in
07:04 9.8 °F 9.2 °F 1002.9 in SSW 11.1 mph 16.1 mph 96 % 0.0 in
07:10 9.7 °F 9.1 °F 1002.9 in SW 14.3 mph 14.5 mph 96 % 0.0 in
07:14 9.7 °F 9.1 °F 1002.6 in SSW 6.4 mph 12.9 mph 96 % 0.0 in
07:16 9.7 °F 9.1 °F 1002.6 in South 4.7 mph 9.7 mph 96 % 0.0 in
07:24 9.7 °F 9.1 °F 1002.6 in SSE 7.9 mph 11.3 mph 96 % 0.0 in
07:32 9.7 °F 9.1 °F 1002.6 in SSW 3.2 mph 9.7 mph 96 % 0.0 in
07:38 9.7 °F 9.1 °F 1002.6 in SSW 6.4 mph 9.7 mph 96 % 0.0 in
07:44 9.7 °F 9.1 °F 1002.6 in SSE 4.7 mph 8.0 mph 96 % 0.0 in
07:50 9.7 °F 9.1 °F 1002.6 in SSW 7.9 mph 11.3 mph 96 % 0.0 in
07:58 9.7 °F 9.2 °F 1002.6 in SSW 7.9 mph 11.3 mph 97 % 0.3 in
08:04 9.7 °F 9.2 °F 1002.6 in SW 6.4 mph 11.3 mph 97 % 0.3 in
08:12 9.7 °F 9.2 °F 1002.6 in SW 6.4 mph 14.5 mph 97 % 0.5 in
08:18 9.8 °F 9.3 °F 1002.6 in SSW 11.1 mph 17.7 mph 97 % 0.5 in
08:24 9.8 °F 9.3 °F 1002.3 in SSW 6.4 mph 12.9 mph 97 % 0.5 in
08:30 9.8 °F 9.3 °F 1002.3 in SSW 7.9 mph 16.1 mph 97 % 0.5 in
08:36 9.9 °F 9.4 °F 1002.3 in South 14.3 mph 17.7 mph 97 % 0.5 in
08:44 9.9 °F 9.4 °F 1002.3 in SSW 16.3 mph 20.9 mph 97 % 0.5 in
08:50 10.0 °F 9.5 °F 1002.3 in SSW 13.0 mph 19.3 mph 97 % 0.8 in
08:56 10.0 °F 9.5 °F 1002.6 in SW 9.7 mph 16.1 mph 97 % 1.0 in
09:02 10.1 °F 9.6 °F 1002.3 in SSW 11.1 mph 16.1 mph 97 % 0.8 in
09:08 10.1 °F 9.6 °F 1002.3 in SSW 11.1 mph 19.3 mph 97 % 1.0 in
09:10 10.1 °F 9.6 °F 1002.3 in SW 17.7 mph 17.7 mph 97 % 0.8 in
09:16 10.1 °F 9.6 °F 1002.3 in SW 7.9 mph 16.1 mph 97 % 1.0 in
09:22 10.1 °F 9.6 °F 1002.3 in SW 11.1 mph 16.1 mph 97 % 0.8 in
09:28 10.2 °F 9.7 °F 1002.6 in SW 13.0 mph 13.0 mph 97 % 1.0 in
09:38 10.3 °F 9.8 °F 1002.6 in SW 13.0 mph 17.7 mph 97 % 1.5 in
09:46 10.3 °F 9.8 °F 1002.9 in West 13.0 mph 16.1 mph 97 % 1.8 in
09:58 9.9 °F 9.0 °F 1002.9 in West 16.3 mph 35.4 mph 94 % 2.3 in
10:04 9.8 °F 8.6 °F 1002.9 in West 13.0 mph 20.9 mph 92 % 2.3 in
10:10 9.8 °F 8.4 °F 1002.9 in West 17.7 mph 24.1 mph 91 % 2.3 in
10:13 9.8 °F 8.4 °F 1002.9 in West 17.7 mph 20.9 mph 91 % 2.3 in
10:18 9.9 °F 8.3 °F 1002.9 in West 7.9 mph 17.7 mph 90 % 2.3 in
10:28 9.9 °F 8.3 °F 1002.9 in WNW 9.7 mph 9.7 mph 90 % 2.0 in
10:40 9.8 °F 8.2 °F 1002.9 in WNW 3.2 mph 8.0 mph 90 % 1.5 in
10:46 9.8 °F 8.2 °F 1003.3 in SW 3.2 mph 8.0 mph 90 % 1.3 in
10:52 9.8 °F 8.2 °F 1003.3 in West 4.7 mph 9.7 mph 90 % 0.8 in
11:02 9.8 °F 8.4 °F 1003.3 in West 3.2 mph 6.4 mph 91 % 0.5 in
11:06 9.8 °F 8.6 °F 1003.6 in SW 6.4 mph 6.4 mph 92 % 0.5 in
11:08 9.8 °F 8.6 °F 1003.6 in NW 3.2 mph 9.7 mph 92 % 0.5 in
11:14 9.8 °F 8.6 °F 1003.6 in West 11.1 mph 16.1 mph 92 % 0.5 in
11:21 9.9 °F 8.7 °F 1003.9 in West 6.4 mph 14.5 mph 92 % 0.5 in
11:28 9.9 °F 8.8 °F 1003.9 in WSW 6.4 mph 14.5 mph 93 % 0.5 in
11:34 9.9 °F 8.8 °F 1003.9 in WSW 6.4 mph 11.3 mph 93 % 0.5 in
11:41 9.9 °F 8.8 °F 1003.9 in WSW 7.9 mph 17.7 mph 93 % 0.8 in
11:49 9.9 °F 8.8 °F 1003.9 in WSW 17.7 mph 17.7 mph 93 % 0.8 in
11:55 9.8 °F 8.7 °F 1003.9 in WSW 6.4 mph 12.9 mph 93 % 0.8 in
12:01 9.8 °F 8.7 °F 1003.6 in SW 7.9 mph 19.3 mph 93 % 0.5 in
12:07 9.8 °F 8.6 °F 1003.6 in WSW 14.3 mph 16.1 mph 92 % 0.5 in
12:13 9.8 °F 8.6 °F 1003.6 in SW 6.4 mph 20.9 mph 92 % 0.8 in
12:15 9.8 °F 8.7 °F 1003.6 in WSW 16.3 mph 16.3 mph 93 % 0.8 in
12:19 9.7 °F 8.6 °F 1003.6 in SW 11.1 mph 14.5 mph 93 % 0.8 in
12:25 9.7 °F 8.5 °F 1003.3 in SSW 17.7 mph 22.5 mph 92 % 0.8 in
12:31 9.7 °F 8.6 °F 1003.3 in SW 17.7 mph 19.3 mph 93 % 0.5 in
12:37 9.6 °F 8.4 °F 1002.9 in SW 17.7 mph 22.5 mph 92 % 0.5 in
12:43 9.5 °F 8.3 °F 1002.9 in SSW 11.1 mph 20.9 mph 92 % 0.5 in
12:49 9.4 °F 8.2 °F 1002.9 in SW 17.7 mph 22.5 mph 92 % 0.3 in
12:57 9.4 °F 8.2 °F 1002.6 in SSW 17.7 mph 20.9 mph 92 % 0.3 in
13:03 9.3 °F 7.9 °F 1002.6 in SSW 11.1 mph 22.5 mph 91 % 0.3 in
13:09 9.3 °F 7.9 °F 1002.9 in SSW 9.7 mph 22.5 mph 91 % 0.0 in
13:11 9.3 °F 7.9 °F 1002.9 in SW 19.5 mph 24.1 mph 91 % 0.0 in
13:20 9.3 °F 7.7 °F 1002.9 in SW 7.9 mph 17.7 mph 90 % 0.0 in
13:29 9.3 °F 7.7 °F 1003.3 in SW 7.9 mph 14.5 mph 90 % 0.0 in
13:33 9.3 °F 7.7 °F 1002.9 in WSW 4.7 mph 14.5 mph 90 % 0.0 in
13:45 9.3 °F 7.9 °F 1002.9 in WSW 17.7 mph 20.9 mph 91 % 0.0 in
13:53 9.3 °F 8.1 °F 1002.9 in SW 7.9 mph 11.3 mph 92 % 0.0 in
13:59 9.3 °F 8.1 °F 1002.9 in SW 7.9 mph 14.5 mph 92 % 0.0 in
14:03 9.4 °F 8.2 °F 1002.9 in SW 6.4 mph 12.9 mph 92 % 0.0 in
14:09 9.4 °F 8.2 °F 1002.9 in SSW 7.9 mph 19.3 mph 92 % 0.0 in
14:15 9.5 °F 8.4 °F 1003.3 in SW 4.7 mph 9.7 mph 93 % 0.0 in
14:21 9.5 °F 8.3 °F 1003.3 in SW 9.7 mph 16.1 mph 92 % 0.0 in
14:27 9.5 °F 8.3 °F 1003.3 in SSW 3.2 mph 17.7 mph 92 % 0.0 in
14:33 9.6 °F 8.4 °F 1003.3 in West 13.0 mph 20.9 mph 92 % 0.0 in
14:43 9.6 °F 8.4 °F 1003.3 in SW 6.4 mph 16.1 mph 92 % 0.0 in
14:49 9.6 °F 8.4 °F 1003.3 in SW 16.3 mph 25.7 mph 92 % 0.0 in
14:55 9.6 °F 8.4 °F 1003.3 in South 7.9 mph 14.5 mph 92 % 0.0 in
15:01 9.6 °F 8.4 °F 1003.3 in SW 13.0 mph 14.5 mph 92 % 0.0 in
15:03 9.6 °F 8.4 °F 1003.3 in SSW 13.0 mph 19.3 mph 92 % 0.0 in
15:09 9.6 °F 8.4 °F 1003.6 in WSW 9.7 mph 14.5 mph 92 % 0.0 in
15:15 9.6 °F 8.4 °F 1003.6 in SSW 9.7 mph 14.5 mph 92 % 0.0 in
15:21 9.6 °F 8.4 °F 1003.6 in WSW 4.7 mph 14.5 mph 92 % 0.0 in
15:29 9.6 °F 8.4 °F 1003.6 in SW 6.4 mph 16.1 mph 92 % 0.0 in
15:33 9.6 °F 8.4 °F 1003.6 in WSW 9.7 mph 12.9 mph 92 % 0.0 in
15:35 9.6 °F 8.4 °F 1003.6 in SW 11.1 mph 11.3 mph 92 % 0.0 in
15:41 9.6 °F 8.4 °F 1003.6 in SW 11.1 mph 17.7 mph 92 % 0.0 in
15:47 9.6 °F 8.4 °F 1003.9 in SSW 4.7 mph 11.3 mph 92 % 0.0 in
15:53 9.6 °F 8.4 °F 1003.6 in SW 7.9 mph 12.9 mph 92 % 0.0 in
15:59 9.6 °F 8.4 °F 1003.6 in SW 9.7 mph 14.5 mph 92 % 0.0 in
16:05 9.5 °F 8.4 °F 1003.6 in SW 13.0 mph 14.5 mph 93 % 0.0 in
16:11 9.5 °F 8.4 °F 1003.9 in West 3.2 mph 11.3 mph 93 % 0.0 in
16:19 9.4 °F 8.2 °F 1003.9 in SW 4.7 mph 12.9 mph 92 % 0.0 in
16:25 9.4 °F 8.2 °F 1003.6 in SW 4.7 mph 9.7 mph 92 % 0.0 in
16:33 9.4 °F 8.2 °F 1003.6 in SW 9.7 mph 14.5 mph 92 % 0.0 in
16:39 9.4 °F 8.0 °F 1003.6 in SW 11.1 mph 17.7 mph 91 % 0.0 in
16:47 9.4 °F 8.0 °F 1003.6 in SW 7.9 mph 19.3 mph 91 % 0.0 in
16:59 9.4 °F 7.8 °F 1003.6 in SW 4.7 mph 16.1 mph 90 % 0.0 in
17:08 9.4 °F 7.8 °F 1003.6 in WSW 13.0 mph 13.0 mph 90 % 0.0 in
17:09 9.3 °F 7.7 °F 1003.9 in SW 6.4 mph 9.7 mph 90 % 0.0 in
17:15 9.3 °F 7.7 °F 1003.6 in SW 7.9 mph 12.9 mph 90 % 0.0 in
17:21 9.3 °F 7.7 °F 1003.6 in SSW 6.4 mph 11.3 mph 90 % 0.0 in
17:27 9.2 °F 7.8 °F 1003.6 in SW 11.1 mph 12.9 mph 91 % 0.0 in
17:35 9.1 °F 7.7 °F 1003.9 in SW 7.9 mph 9.7 mph 91 % 0.0 in
17:41 9.1 °F 7.7 °F 1003.9 in SW 9.7 mph 14.5 mph 91 % 0.0 in
17:50 9.1 °F 7.7 °F 1003.9 in SW 13.0 mph 13.0 mph 91 % 0.0 in
17:53 9.1 °F 7.7 °F 1003.9 in SSW 6.4 mph 11.3 mph 91 % 0.0 in
18:03 8.9 °F 7.7 °F 1003.9 in SW 3.2 mph 9.7 mph 92 % 0.0 in
18:05 8.9 °F 7.7 °F 1003.9 in SSW 7.9 mph 11.3 mph 92 % 0.0 in
18:09 8.9 °F 7.7 °F 1003.9 in SW 6.4 mph 11.3 mph 92 % 0.0 in
18:11 8.9 °F 7.7 °F 1003.9 in SW 7.9 mph 11.3 mph 92 % 0.0 in
18:17 8.9 °F 7.7 °F 1003.9 in WSW 7.9 mph 12.9 mph 92 % 0.0 in
18:21 8.9 °F 7.7 °F 1003.9 in SW 4.7 mph 14.5 mph 92 % 0.0 in
18:25 8.9 °F 7.7 °F 1003.9 in SSW 6.4 mph 11.3 mph 92 % 0.0 in
18:33 8.9 °F 7.7 °F 1003.9 in SSW 4.7 mph 9.7 mph 92 % 0.0 in
18:43 8.8 °F 7.7 °F 1003.9 in SW 7.9 mph 11.3 mph 93 % 0.0 in
18:53 8.8 °F 7.7 °F 1003.9 in SSW 9.7 mph 9.7 mph 93 % 0.0 in
19:01 8.8 °F 7.7 °F 1003.9 in SSW 6.4 mph 11.3 mph 93 % 0.0 in
19:09 8.8 °F 7.7 °F 1003.9 in SW 7.9 mph 12.9 mph 93 % 0.0 in
19:15 8.8 °F 7.7 °F 1004.3 in SW 11.1 mph 16.1 mph 93 % 0.0 in
19:23 8.9 °F 7.8 °F 1004.3 in SW 13.0 mph 17.7 mph 93 % 0.0 in
19:29 8.8 °F 7.7 °F 1004.3 in SW 6.4 mph 12.9 mph 93 % 0.0 in
19:43 8.6 °F 7.7 °F 1004.3 in WSW 3.2 mph 8.0 mph 94 % 0.0 in
19:45 8.5 °F 7.6 °F 1004.3 in WSW 4.7 mph 8.0 mph 94 % 0.0 in
19:49 8.5 °F 7.6 °F 1004.3 in WSW 4.7 mph 9.7 mph 94 % 0.0 in
19:55 8.5 °F 7.6 °F 1004.6 in SW 6.4 mph 9.7 mph 94 % 0.0 in
19:57 8.4 °F 7.5 °F 1004.6 in WSW 4.7 mph 6.4 mph 94 % 0.0 in
20:01 8.4 °F 7.6 °F 1004.6 in WSW 9.7 mph 9.7 mph 95 % 0.3 in
20:09 8.4 °F 7.6 °F 1004.6 in West 6.4 mph 6.4 mph 95 % 0.3 in
20:13 8.4 °F 7.6 °F 1004.6 in WSW 4.7 mph 9.7 mph 95 % 0.3 in
20:20 8.4 °F 7.6 °F 1004.3 in West 3.2 mph 9.7 mph 95 % 0.3 in
20:27 8.3 °F 7.7 °F 1004.6 in SW 4.7 mph 12.9 mph 96 % 0.5 in
20:35 8.3 °F 7.7 °F 1004.6 in SSW 7.9 mph 12.9 mph 96 % 0.5 in
20:43 8.3 °F 7.7 °F 1004.6 in SSW 7.9 mph 12.9 mph 96 % 0.5 in
20:50 8.3 °F 7.7 °F 1004.6 in SW 3.2 mph 8.0 mph 96 % 0.5 in
20:55 8.2 °F 7.6 °F 1004.6 in SW 6.4 mph 9.7 mph 96 % 0.5 in
21:03 8.2 °F 7.6 °F 1004.6 in SW 4.7 mph 8.0 mph 96 % 0.3 in
21:10 8.2 °F 7.6 °F 1004.6 in WSW 4.7 mph 8.0 mph 96 % 0.3 in
21:16 8.2 °F 7.6 °F 1004.6 in SW 4.7 mph 6.4 mph 96 % 0.5 in
21:22 8.2 °F 7.6 °F 1004.3 in SSW 4.7 mph 6.4 mph 96 % 0.5 in
21:24 8.2 °F 7.6 °F 1004.3 in SSW 3.2 mph 6.4 mph 96 % 0.5 in
21:32 8.2 °F 7.6 °F 1004.3 in SSW 3.2 mph 4.8 mph 96 % 0.3 in
21:38 8.2 °F 7.6 °F 1004.3 in SSW 4.7 mph 8.0 mph 96 % 0.5 in
21:46 8.2 °F 7.6 °F 1004.6 in SSW 3.2 mph 8.0 mph 96 % 0.5 in
21:48 8.2 °F 7.6 °F 1004.6 in South 6.4 mph 6.4 mph 96 % 0.5 in
21:54 8.2 °F 7.6 °F 1004.6 in SSW 7.9 mph 9.7 mph 96 % 0.5 in
21:58 8.2 °F 7.6 °F 1004.6 in SSW 4.7 mph 9.7 mph 96 % 0.5 in
22:00 8.2 °F 7.6 °F 1004.6 in SW 7.9 mph 11.3 mph 96 % 0.5 in
22:06 8.2 °F 7.6 °F 1004.6 in SSW 4.7 mph 9.7 mph 96 % 0.5 in
22:12 8.2 °F 7.6 °F 1004.6 in SW 13.0 mph 13.0 mph 96 % 0.5 in
22:18 8.2 °F 7.6 °F 1004.6 in SW 11.1 mph 17.7 mph 96 % 0.3 in
22:24 8.2 °F 7.4 °F 1004.6 in SW 11.1 mph 12.9 mph 95 % 0.3 in
22:30 8.2 °F 7.4 °F 1004.6 in SSW 9.7 mph 14.5 mph 95 % 0.3 in
22:42 8.2 °F 7.4 °F 1004.6 in SSW 3.2 mph 9.7 mph 95 % 0.0 in
22:50 8.3 °F 7.5 °F 1004.6 in WSW 7.9 mph 8.0 mph 95 % 0.0 in
22:56 8.3 °F 7.5 °F 1004.6 in WSW 4.7 mph 14.5 mph 95 % 0.0 in
23:02 8.3 °F 7.5 °F 1004.6 in WSW 4.7 mph 12.9 mph 95 % 0.5 in
23:08 8.2 °F 7.4 °F 1004.6 in WSW 4.7 mph 6.4 mph 95 % 0.5 in
23:14 8.2 °F 7.6 °F 1004.6 in Calm   4.8 mph 96 % 0.5 in
23:20 8.2 °F 7.6 °F 1004.6 in WSW 3.2 mph 6.4 mph 96 % 0.5 in
23:26 8.2 °F 7.6 °F 1004.6 in SW 6.4 mph 6.4 mph 96 % 0.5 in
23:32 8.2 °F 7.6 °F 1004.6 in SW 1.4 mph 4.8 mph 96 % 0.5 in
23:42 8.2 °F 7.6 °F 1005.0 in SSW 1.4 mph 8.0 mph 96 % 0.5 in
23:50 8.2 °F 7.6 °F 1004.6 in SSW 4.7 mph 4.8 mph 96 % 0.5 in
23:56 8.1 °F 7.5 °F 1004.6 in Calm   3.2 mph 96 % 0.5 in
Meteo18
Compliments of Weather Underground - 4 mb

Script developed by  Jim McMurry - jmcmurry@mwt.net Adapted for the template by  Wim van der Kuil - Leuven-Template.eu

You find our weather info also at:

European Weather Network

Weather Underground

Equipment we use:

Weather-station
Davis Vue

Weather-program
Meteobridge

Weather-server
Raspberry PI 2 B+

Provider
1 and 1

Davis Vue

Meteobridge

Raspberry PI 2 B+

1 and 1